sensor_id;sensor_type;location;lat;lon;timestamp;temperature;humidity
13642;DHT22;6894;52.196;9.904;2023-08-06T00:00:27;15.20;99.90
13642;DHT22;6894;52.196;9.904;2023-08-06T00:02:54;15.20;99.90
13642;DHT22;6894;52.196;9.904;2023-08-06T00:05:21;15.10;99.90
13642;DHT22;6894;52.196;9.904;2023-08-06T00:07:48;15.10;99.90
13642;DHT22;6894;52.196;9.904;2023-08-06T00:10:15;15.10;99.90
13642;DHT22;6894;52.196;9.904;2023-08-06T00:12:43;15.10;99.90
13642;DHT22;6894;52.196;9.904;2023-08-06T00:15:10;15.10;99.90
13642;DHT22;6894;52.196;9.904;2023-08-06T00:17:37;15.20;99.90
13642;DHT22;6894;52.196;9.904;2023-08-06T00:20:05;15.20;99.90
13642;DHT22;6894;52.196;9.904;2023-08-06T00:22:33;15.10;99.90
13642;DHT22;6894;52.196;9.904;2023-08-06T00:25:00;15.10;99.90
13642;DHT22;6894;52.196;9.904;2023-08-06T00:27:26;15.20;99.90
13642;DHT22;6894;52.196;9.904;2023-08-06T00:29:55;15.10;99.90
13642;DHT22;6894;52.196;9.904;2023-08-06T00:32:22;15.10;99.90
13642;DHT22;6894;52.196;9.904;2023-08-06T00:34:48;15.10;99.90
13642;DHT22;6894;52.196;9.904;2023-08-06T00:37:16;15.10;99.90
13642;DHT22;6894;52.196;9.904;2023-08-06T00:39:43;15.00;99.90
13642;DHT22;6894;52.196;9.904;2023-08-06T00:42:10;15.00;99.90
13642;DHT22;6894;52.196;9.904;2023-08-06T00:44:36;15.00;99.90
13642;DHT22;6894;52.196;9.904;2023-08-06T00:47:06;15.00;99.90
13642;DHT22;6894;52.196;9.904;2023-08-06T00:49:34;14.90;99.90
13642;DHT22;6894;52.196;9.904;2023-08-06T00:52:01;14.90;99.90
13642;DHT22;6894;52.196;9.904;2023-08-06T00:54:29;15.00;99.90
13642;DHT22;6894;52.196;9.904;2023-08-06T00:56:56;14.90;99.90
13642;DHT22;6894;52.196;9.904;2023-08-06T00:59:23;14.90;99.90
13642;DHT22;6894;52.196;9.904;2023-08-06T01:01:50;14.90;99.90
13642;DHT22;6894;52.196;9.904;2023-08-06T01:04:19;14.80;99.90
13642;DHT22;6894;52.196;9.904;2023-08-06T01:06:48;14.90;99.90
13642;DHT22;6894;52.196;9.904;2023-08-06T01:09:25;14.80;99.90
13642;DHT22;6894;52.196;9.904;2023-08-06T01:12:04;14.80;99.90
13642;DHT22;6894;52.196;9.904;2023-08-06T01:14:39;14.80;99.90
13642;DHT22;6894;52.196;9.904;2023-08-06T01:17:11;14.70;99.90
13642;DHT22;6894;52.196;9.904;2023-08-06T01:19:40;14.80;99.90
13642;DHT22;6894;52.196;9.904;2023-08-06T01:22:08;14.80;99.90
13642;DHT22;6894;52.196;9.904;2023-08-06T01:24:35;14.70;99.90
13642;DHT22;6894;52.196;9.904;2023-08-06T01:27:06;14.70;99.90
13642;DHT22;6894;52.196;9.904;2023-08-06T01:29:39;14.70;99.90
13642;DHT22;6894;52.196;9.904;2023-08-06T01:32:09;14.70;99.90
13642;DHT22;6894;52.196;9.904;2023-08-06T01:34:39;14.70;99.90
13642;DHT22;6894;52.196;9.904;2023-08-06T01:37:09;14.70;99.90
13642;DHT22;6894;52.196;9.904;2023-08-06T01:39:36;14.70;99.90
13642;DHT22;6894;52.196;9.904;2023-08-06T01:42:03;14.70;99.90
13642;DHT22;6894;52.196;9.904;2023-08-06T01:44:30;14.70;99.90
13642;DHT22;6894;52.196;9.904;2023-08-06T01:46:57;14.70;99.90
13642;DHT22;6894;52.196;9.904;2023-08-06T01:49:24;14.70;99.90
13642;DHT22;6894;52.196;9.904;2023-08-06T01:51:50;14.70;99.90
13642;DHT22;6894;52.196;9.904;2023-08-06T01:54:18;14.80;99.90
13642;DHT22;6894;52.196;9.904;2023-08-06T01:56:45;14.70;99.90
13642;DHT22;6894;52.196;9.904;2023-08-06T01:59:12;14.70;99.90
13642;DHT22;6894;52.196;9.904;2023-08-06T02:01:38;14.60;99.90
13642;DHT22;6894;52.196;9.904;2023-08-06T02:04:05;14.50;99.90
13642;DHT22;6894;52.196;9.904;2023-08-06T02:06:32;14.50;99.90
13642;DHT22;6894;52.196;9.904;2023-08-06T02:08:59;14.50;99.90
13642;DHT22;6894;52.196;9.904;2023-08-06T02:11:27;14.50;99.90
13642;DHT22;6894;52.196;9.904;2023-08-06T02:13:53;14.50;99.90
13642;DHT22;6894;52.196;9.904;2023-08-06T02:16:20;14.40;99.90
13642;DHT22;6894;52.196;9.904;2023-08-06T02:18:47;14.50;99.90
13642;DHT22;6894;52.196;9.904;2023-08-06T02:21:14;14.50;99.90
13642;DHT22;6894;52.196;9.904;2023-08-06T02:23:40;14.60;99.90
13642;DHT22;6894;52.196;9.904;2023-08-06T02:26:07;14.60;99.90
13642;DHT22;6894;52.196;9.904;2023-08-06T02:28:35;14.60;99.90
13642;DHT22;6894;52.196;9.904;2023-08-06T02:31:02;14.60;99.90
13642;DHT22;6894;52.196;9.904;2023-08-06T02:33:28;14.60;99.90
13642;DHT22;6894;52.196;9.904;2023-08-06T02:36:02;14.50;99.90
13642;DHT22;6894;52.196;9.904;2023-08-06T02:38:29;14.50;99.90
13642;DHT22;6894;52.196;9.904;2023-08-06T02:40:56;14.50;99.90
13642;DHT22;6894;52.196;9.904;2023-08-06T02:43:23;14.50;99.90
13642;DHT22;6894;52.196;9.904;2023-08-06T02:45:51;14.50;99.90
13642;DHT22;6894;52.196;9.904;2023-08-06T02:48:18;14.50;99.90
13642;DHT22;6894;52.196;9.904;2023-08-06T02:50:45;14.50;99.90
13642;DHT22;6894;52.196;9.904;2023-08-06T02:53:11;14.50;99.90
13642;DHT22;6894;52.196;9.904;2023-08-06T02:55:45;14.50;99.90
13642;DHT22;6894;52.196;9.904;2023-08-06T02:58:13;14.50;99.90
13642;DHT22;6894;52.196;9.904;2023-08-06T03:00:39;14.50;99.90
13642;DHT22;6894;52.196;9.904;2023-08-06T03:03:07;14.50;99.90
13642;DHT22;6894;52.196;9.904;2023-08-06T03:05:34;14.40;99.90
13642;DHT22;6894;52.196;9.904;2023-08-06T03:08:01;14.40;99.90
13642;DHT22;6894;52.196;9.904;2023-08-06T03:10:28;14.30;99.90
13642;DHT22;6894;52.196;9.904;2023-08-06T03:12:54;14.30;99.90
13642;DHT22;6894;52.196;9.904;2023-08-06T03:15:21;14.30;99.90
13642;DHT22;6894;52.196;9.904;2023-08-06T03:17:48;14.30;99.90
13642;DHT22;6894;52.196;9.904;2023-08-06T03:20:16;14.30;99.90
13642;DHT22;6894;52.196;9.904;2023-08-06T03:22:43;14.30;99.90
13642;DHT22;6894;52.196;9.904;2023-08-06T03:25:09;14.40;99.90
13642;DHT22;6894;52.196;9.904;2023-08-06T03:27:36;14.40;99.90
13642;DHT22;6894;52.196;9.904;2023-08-06T03:30:03;14.30;99.90
13642;DHT22;6894;52.196;9.904;2023-08-06T03:32:30;14.30;99.90
13642;DHT22;6894;52.196;9.904;2023-08-06T03:34:57;14.40;99.90
13642;DHT22;6894;52.196;9.904;2023-08-06T03:37:25;14.40;99.90
13642;DHT22;6894;52.196;9.904;2023-08-06T03:39:52;14.50;99.90
13642;DHT22;6894;52.196;9.904;2023-08-06T03:42:19;14.50;99.90
13642;DHT22;6894;52.196;9.904;2023-08-06T03:44:45;14.50;99.90
13642;DHT22;6894;52.196;9.904;2023-08-06T03:47:13;14.40;99.90
13642;DHT22;6894;52.196;9.904;2023-08-06T03:49:39;14.40;99.90
13642;DHT22;6894;52.196;9.904;2023-08-06T03:52:07;14.40;99.90
13642;DHT22;6894;52.196;9.904;2023-08-06T03:54:35;14.40;99.90
13642;DHT22;6894;52.196;9.904;2023-08-06T03:57:02;14.30;99.90
13642;DHT22;6894;52.196;9.904;2023-08-06T03:59:29;14.40;99.90
13642;DHT22;6894;52.196;9.904;2023-08-06T04:01:55;14.40;99.90
13642;DHT22;6894;52.196;9.904;2023-08-06T04:04:22;14.40;99.90
13642;DHT22;6894;52.196;9.904;2023-08-06T04:06:49;14.40;99.90
13642;DHT22;6894;52.196;9.904;2023-08-06T04:09:15;14.40;99.90
13642;DHT22;6894;52.196;9.904;2023-08-06T04:11:44;14.50;99.90
13642;DHT22;6894;52.196;9.904;2023-08-06T04:14:10;14.40;99.90
13642;DHT22;6894;52.196;9.904;2023-08-06T04:16:37;14.40;99.90
13642;DHT22;6894;52.196;9.904;2023-08-06T04:19:04;14.40;99.90
13642;DHT22;6894;52.196;9.904;2023-08-06T04:21:30;14.40;99.90
13642;DHT22;6894;52.196;9.904;2023-08-06T04:23:57;14.30;99.90
13642;DHT22;6894;52.196;9.904;2023-08-06T04:26:24;14.30;99.90
13642;DHT22;6894;52.196;9.904;2023-08-06T04:28:52;14.20;99.90
13642;DHT22;6894;52.196;9.904;2023-08-06T04:31:19;14.20;99.90
13642;DHT22;6894;52.196;9.904;2023-08-06T04:33:46;14.30;99.90
13642;DHT22;6894;52.196;9.904;2023-08-06T04:36:12;14.30;99.90
13642;DHT22;6894;52.196;9.904;2023-08-06T04:38:39;14.30;99.90
13642;DHT22;6894;52.196;9.904;2023-08-06T04:41:10;14.30;99.90
13642;DHT22;6894;52.196;9.904;2023-08-06T04:43:36;14.30;99.90
13642;DHT22;6894;52.196;9.904;2023-08-06T04:46:05;14.30;99.90
13642;DHT22;6894;52.196;9.904;2023-08-06T04:48:32;14.20;99.90
13642;DHT22;6894;52.196;9.904;2023-08-06T04:50:59;14.20;99.90
13642;DHT22;6894;52.196;9.904;2023-08-06T04:53:25;14.30;99.90
13642;DHT22;6894;52.196;9.904;2023-08-06T04:55:52;14.40;99.90
13642;DHT22;6894;52.196;9.904;2023-08-06T04:58:19;14.50;99.90
13642;DHT22;6894;52.196;9.904;2023-08-06T05:00:46;14.50;99.90
13642;DHT22;6894;52.196;9.904;2023-08-06T05:03:14;14.50;99.90
13642;DHT22;6894;52.196;9.904;2023-08-06T05:05:41;14.50;99.90
13642;DHT22;6894;52.196;9.904;2023-08-06T05:08:13;14.40;99.90
13642;DHT22;6894;52.196;9.904;2023-08-06T05:10:42;14.50;99.90
13642;DHT22;6894;52.196;9.904;2023-08-06T05:13:09;14.50;99.90
13642;DHT22;6894;52.196;9.904;2023-08-06T05:15:36;14.50;99.90
13642;DHT22;6894;52.196;9.904;2023-08-06T05:18:02;14.50;99.90
13642;DHT22;6894;52.196;9.904;2023-08-06T05:20:31;14.60;99.90
13642;DHT22;6894;52.196;9.904;2023-08-06T05:22:57;14.60;99.90
13642;DHT22;6894;52.196;9.904;2023-08-06T05:25:24;14.60;99.90
13642;DHT22;6894;52.196;9.904;2023-08-06T05:27:51;14.50;99.90
13642;DHT22;6894;52.196;9.904;2023-08-06T05:30:18;14.50;99.90
13642;DHT22;6894;52.196;9.904;2023-08-06T05:32:45;14.60;99.90
13642;DHT22;6894;52.196;9.904;2023-08-06T05:35:12;14.60;99.90
13642;DHT22;6894;52.196;9.904;2023-08-06T05:37:40;14.70;99.90
13642;DHT22;6894;52.196;9.904;2023-08-06T05:40:08;14.70;99.90
13642;DHT22;6894;52.196;9.904;2023-08-06T05:42:34;14.80;99.90
13642;DHT22;6894;52.196;9.904;2023-08-06T05:45:01;14.80;99.90
13642;DHT22;6894;52.196;9.904;2023-08-06T05:47:28;14.80;99.90
13642;DHT22;6894;52.196;9.904;2023-08-06T05:49:54;14.90;99.90
13642;DHT22;6894;52.196;9.904;2023-08-06T05:52:21;15.00;99.90
13642;DHT22;6894;52.196;9.904;2023-08-06T05:54:49;15.20;99.90
13642;DHT22;6894;52.196;9.904;2023-08-06T05:57:16;15.30;99.90
13642;DHT22;6894;52.196;9.904;2023-08-06T05:59:43;15.40;99.90
13642;DHT22;6894;52.196;9.904;2023-08-06T06:02:10;15.50;99.90
13642;DHT22;6894;52.196;9.904;2023-08-06T06:04:37;15.60;99.90
13642;DHT22;6894;52.196;9.904;2023-08-06T06:07:04;15.80;99.90
13642;DHT22;6894;52.196;9.904;2023-08-06T06:09:31;15.90;99.90
13642;DHT22;6894;52.196;9.904;2023-08-06T06:11:59;16.00;99.90
13642;DHT22;6894;52.196;9.904;2023-08-06T06:14:25;16.10;99.90
13642;DHT22;6894;52.196;9.904;2023-08-06T06:16:52;16.20;99.90
13642;DHT22;6894;52.196;9.904;2023-08-06T06:19:19;16.30;99.90
13642;DHT22;6894;52.196;9.904;2023-08-06T06:21:46;16.40;99.90
13642;DHT22;6894;52.196;9.904;2023-08-06T06:24:13;16.50;99.90
13642;DHT22;6894;52.196;9.904;2023-08-06T06:26:39;16.70;99.90
13642;DHT22;6894;52.196;9.904;2023-08-06T06:29:07;16.70;99.90
13642;DHT22;6894;52.196;9.904;2023-08-06T06:31:34;16.80;99.90
13642;DHT22;6894;52.196;9.904;2023-08-06T06:34:01;16.80;99.90
13642;DHT22;6894;52.196;9.904;2023-08-06T06:36:28;16.80;99.90
13642;DHT22;6894;52.196;9.904;2023-08-06T06:38:54;16.90;99.90
13642;DHT22;6894;52.196;9.904;2023-08-06T06:41:21;17.00;99.90
13642;DHT22;6894;52.196;9.904;2023-08-06T06:43:48;17.00;99.90
13642;DHT22;6894;52.196;9.904;2023-08-06T06:46:16;17.20;99.90
13642;DHT22;6894;52.196;9.904;2023-08-06T06:48:42;17.50;99.90
13642;DHT22;6894;52.196;9.904;2023-08-06T06:51:09;17.60;99.90
13642;DHT22;6894;52.196;9.904;2023-08-06T06:53:36;17.70;99.90
13642;DHT22;6894;52.196;9.904;2023-08-06T06:56:04;17.90;99.90
13642;DHT22;6894;52.196;9.904;2023-08-06T06:58:31;17.80;99.90
13642;DHT22;6894;52.196;9.904;2023-08-06T07:00:58;17.90;99.90
13642;DHT22;6894;52.196;9.904;2023-08-06T07:03:26;18.00;99.90
13642;DHT22;6894;52.196;9.904;2023-08-06T07:05:57;18.30;99.90
13642;DHT22;6894;52.196;9.904;2023-08-06T07:08:24;18.50;99.90
13642;DHT22;6894;52.196;9.904;2023-08-06T07:10:50;18.80;99.90
13642;DHT22;6894;52.196;9.904;2023-08-06T07:13:17;19.10;99.90
13642;DHT22;6894;52.196;9.904;2023-08-06T07:15:44;19.20;99.90
13642;DHT22;6894;52.196;9.904;2023-08-06T07:18:11;19.20;99.90
13642;DHT22;6894;52.196;9.904;2023-08-06T07:20:39;19.30;99.90
13642;DHT22;6894;52.196;9.904;2023-08-06T07:23:05;19.20;99.90
13642;DHT22;6894;52.196;9.904;2023-08-06T07:25:32;19.60;99.90
13642;DHT22;6894;52.196;9.904;2023-08-06T07:27:59;19.90;99.90
13642;DHT22;6894;52.196;9.904;2023-08-06T07:30:27;20.20;99.90
13642;DHT22;6894;52.196;9.904;2023-08-06T07:32:54;20.40;99.90
13642;DHT22;6894;52.196;9.904;2023-08-06T07:35:21;20.40;99.90
13642;DHT22;6894;52.196;9.904;2023-08-06T07:37:49;20.60;99.90
13642;DHT22;6894;52.196;9.904;2023-08-06T07:40:16;20.80;99.90
13642;DHT22;6894;52.196;9.904;2023-08-06T07:42:43;21.20;99.90
13642;DHT22;6894;52.196;9.904;2023-08-06T07:45:10;21.30;99.90
13642;DHT22;6894;52.196;9.904;2023-08-06T07:47:36;21.30;99.90
13642;DHT22;6894;52.196;9.904;2023-08-06T07:50:04;21.30;99.90
13642;DHT22;6894;52.196;9.904;2023-08-06T07:52:31;21.30;99.90
13642;DHT22;6894;52.196;9.904;2023-08-06T07:54:59;21.30;99.90
13642;DHT22;6894;52.196;9.904;2023-08-06T07:57:27;21.10;99.90
13642;DHT22;6894;52.196;9.904;2023-08-06T07:59:53;20.90;99.90
13642;DHT22;6894;52.196;9.904;2023-08-06T08:02:20;20.90;99.90
13642;DHT22;6894;52.196;9.904;2023-08-06T08:04:47;20.80;99.90
13642;DHT22;6894;52.196;9.904;2023-08-06T08:07:14;21.00;99.90
13642;DHT22;6894;52.196;9.904;2023-08-06T08:09:41;21.10;99.90
13642;DHT22;6894;52.196;9.904;2023-08-06T08:12:09;21.20;99.90
13642;DHT22;6894;52.196;9.904;2023-08-06T08:14:35;21.20;99.90
13642;DHT22;6894;52.196;9.904;2023-08-06T08:17:03;21.10;99.90
13642;DHT22;6894;52.196;9.904;2023-08-06T08:19:30;21.30;99.90
13642;DHT22;6894;52.196;9.904;2023-08-06T08:21:57;21.40;99.90
13642;DHT22;6894;52.196;9.904;2023-08-06T08:24:24;21.50;99.90
13642;DHT22;6894;52.196;9.904;2023-08-06T08:26:51;21.50;99.90
13642;DHT22;6894;52.196;9.904;2023-08-06T08:29:19;21.60;99.90
13642;DHT22;6894;52.196;9.904;2023-08-06T08:31:46;21.70;99.90
13642;DHT22;6894;52.196;9.904;2023-08-06T08:34:14;21.80;99.90
13642;DHT22;6894;52.196;9.904;2023-08-06T08:36:41;21.90;99.90
13642;DHT22;6894;52.196;9.904;2023-08-06T08:39:08;22.00;99.90
13642;DHT22;6894;52.196;9.904;2023-08-06T08:41:36;22.20;99.90
13642;DHT22;6894;52.196;9.904;2023-08-06T08:44:06;22.10;99.90
13642;DHT22;6894;52.196;9.904;2023-08-06T08:46:36;22.30;99.90
13642;DHT22;6894;52.196;9.904;2023-08-06T08:49:03;22.60;99.90
13642;DHT22;6894;52.196;9.904;2023-08-06T08:51:31;22.90;99.90
13642;DHT22;6894;52.196;9.904;2023-08-06T08:53:59;23.10;99.90
13642;DHT22;6894;52.196;9.904;2023-08-06T08:56:26;23.40;99.90
13642;DHT22;6894;52.196;9.904;2023-08-06T08:58:52;22.70;99.90
13642;DHT22;6894;52.196;9.904;2023-08-06T09:01:21;22.80;99.90
13642;DHT22;6894;52.196;9.904;2023-08-06T09:03:50;22.90;99.90
13642;DHT22;6894;52.196;9.904;2023-08-06T09:06:19;22.90;99.90
13642;DHT22;6894;52.196;9.904;2023-08-06T09:08:51;23.10;99.90
13642;DHT22;6894;52.196;9.904;2023-08-06T09:11:21;23.40;99.90
13642;DHT22;6894;52.196;9.904;2023-08-06T09:13:48;23.60;99.90
13642;DHT22;6894;52.196;9.904;2023-08-06T09:16:14;23.40;99.90
13642;DHT22;6894;52.196;9.904;2023-08-06T09:18:41;23.20;99.90
13642;DHT22;6894;52.196;9.904;2023-08-06T09:21:14;23.40;99.90
13642;DHT22;6894;52.196;9.904;2023-08-06T09:23:41;23.60;99.90
13642;DHT22;6894;52.196;9.904;2023-08-06T09:26:11;24.00;99.90
13642;DHT22;6894;52.196;9.904;2023-08-06T09:28:39;24.50;99.90
13642;DHT22;6894;52.196;9.904;2023-08-06T09:31:08;24.80;99.90
13642;DHT22;6894;52.196;9.904;2023-08-06T09:33:36;24.70;99.90
13642;DHT22;6894;52.196;9.904;2023-08-06T09:36:10;24.30;99.90
13642;DHT22;6894;52.196;9.904;2023-08-06T09:38:41;24.30;99.90
13642;DHT22;6894;52.196;9.904;2023-08-06T09:41:08;24.50;99.90
13642;DHT22;6894;52.196;9.904;2023-08-06T09:43:40;25.10;99.90
13642;DHT22;6894;52.196;9.904;2023-08-06T09:46:12;25.20;99.90
13642;DHT22;6894;52.196;9.904;2023-08-06T09:48:41;25.70;99.90
13642;DHT22;6894;52.196;9.904;2023-08-06T09:51:11;26.00;99.90
13642;DHT22;6894;52.196;9.904;2023-08-06T09:53:41;26.00;99.90
13642;DHT22;6894;52.196;9.904;2023-08-06T09:56:09;26.20;99.90
13642;DHT22;6894;52.196;9.904;2023-08-06T09:58:38;26.30;99.90
13642;DHT22;6894;52.196;9.904;2023-08-06T10:01:06;26.30;99.90
13642;DHT22;6894;52.196;9.904;2023-08-06T10:03:34;26.00;99.90
13642;DHT22;6894;52.196;9.904;2023-08-06T10:06:01;25.90;99.90
13642;DHT22;6894;52.196;9.904;2023-08-06T10:08:32;25.70;99.90
13642;DHT22;6894;52.196;9.904;2023-08-06T10:11:02;25.50;99.90
13642;DHT22;6894;52.196;9.904;2023-08-06T10:13:30;25.80;99.90
13642;DHT22;6894;52.196;9.904;2023-08-06T10:15:57;26.00;99.90
13642;DHT22;6894;52.196;9.904;2023-08-06T10:18:24;26.00;99.90
13642;DHT22;6894;52.196;9.904;2023-08-06T10:20:51;26.10;99.90
13642;DHT22;6894;52.196;9.904;2023-08-06T10:23:18;26.20;99.90
13642;DHT22;6894;52.196;9.904;2023-08-06T10:25:53;26.10;99.90
13642;DHT22;6894;52.196;9.904;2023-08-06T10:28:33;26.00;99.90
13642;DHT22;6894;52.196;9.904;2023-08-06T10:31:00;26.20;99.90
13642;DHT22;6894;52.196;9.904;2023-08-06T10:33:40;26.50;99.90
13642;DHT22;6894;52.196;9.904;2023-08-06T10:36:08;26.80;99.90
13642;DHT22;6894;52.196;9.904;2023-08-06T10:38:44;27.00;99.90
13642;DHT22;6894;52.196;9.904;2023-08-06T10:41:16;27.30;99.90
13642;DHT22;6894;52.196;9.904;2023-08-06T10:43:47;27.20;99.90
13642;DHT22;6894;52.196;9.904;2023-08-06T10:46:22;27.30;99.90
13642;DHT22;6894;52.196;9.904;2023-08-06T10:48:49;27.40;99.90
13642;DHT22;6894;52.196;9.904;2023-08-06T10:51:17;27.60;99.90
13642;DHT22;6894;52.196;9.904;2023-08-06T10:53:45;27.30;99.90
13642;DHT22;6894;52.196;9.904;2023-08-06T10:56:12;26.90;99.90
13642;DHT22;6894;52.196;9.904;2023-08-06T10:58:39;25.80;99.90
13642;DHT22;6894;52.196;9.904;2023-08-06T11:01:08;25.70;99.90
13642;DHT22;6894;52.196;9.904;2023-08-06T11:03:34;25.80;99.90
13642;DHT22;6894;52.196;9.904;2023-08-06T11:06:02;26.00;99.90
13642;DHT22;6894;52.196;9.904;2023-08-06T11:08:34;26.10;99.90
13642;DHT22;6894;52.196;9.904;2023-08-06T11:11:08;26.00;99.90
13642;DHT22;6894;52.196;9.904;2023-08-06T11:13:36;26.00;99.90
13642;DHT22;6894;52.196;9.904;2023-08-06T11:16:04;26.00;99.90
13642;DHT22;6894;52.196;9.904;2023-08-06T11:18:33;26.20;99.90
13642;DHT22;6894;52.196;9.904;2023-08-06T11:21:00;26.20;99.90
13642;DHT22;6894;52.196;9.904;2023-08-06T11:23:27;26.30;99.90
13642;DHT22;6894;52.196;9.904;2023-08-06T11:25:55;26.40;99.90
13642;DHT22;6894;52.196;9.904;2023-08-06T11:28:22;26.40;99.90
13642;DHT22;6894;52.196;9.904;2023-08-06T11:30:49;26.40;99.90
13642;DHT22;6894;52.196;9.904;2023-08-06T11:33:20;26.40;99.90
13642;DHT22;6894;52.196;9.904;2023-08-06T11:35:48;26.50;99.90
13642;DHT22;6894;52.196;9.904;2023-08-06T11:38:15;26.50;99.90
13642;DHT22;6894;52.196;9.904;2023-08-06T11:40:43;26.80;99.90
13642;DHT22;6894;52.196;9.904;2023-08-06T11:43:11;27.40;99.90
13642;DHT22;6894;52.196;9.904;2023-08-06T11:45:38;27.80;99.90
13642;DHT22;6894;52.196;9.904;2023-08-06T11:48:05;27.80;99.90
13642;DHT22;6894;52.196;9.904;2023-08-06T11:50:36;28.00;99.90
13642;DHT22;6894;52.196;9.904;2023-08-06T11:53:05;28.30;99.90
13642;DHT22;6894;52.196;9.904;2023-08-06T11:55:32;28.50;99.90
13642;DHT22;6894;52.196;9.904;2023-08-06T11:58:03;29.00;99.90
13642;DHT22;6894;52.196;9.904;2023-08-06T12:00:30;28.90;99.90
13642;DHT22;6894;52.196;9.904;2023-08-06T12:02:57;29.00;99.90
13642;DHT22;6894;52.196;9.904;2023-08-06T12:05:29;29.10;99.90
13642;DHT22;6894;52.196;9.904;2023-08-06T12:07:58;29.10;99.90
13642;DHT22;6894;52.196;9.904;2023-08-06T12:10:28;28.80;99.90
13642;DHT22;6894;52.196;9.904;2023-08-06T12:12:55;29.20;99.90
13642;DHT22;6894;52.196;9.904;2023-08-06T12:15:22;28.70;99.90
13642;DHT22;6894;52.196;9.904;2023-08-06T12:17:49;28.20;99.90
13642;DHT22;6894;52.196;9.904;2023-08-06T12:20:16;28.50;99.90
13642;DHT22;6894;52.196;9.904;2023-08-06T12:22:43;28.60;99.90
13642;DHT22;6894;52.196;9.904;2023-08-06T12:25:11;28.30;99.90
13642;DHT22;6894;52.196;9.904;2023-08-06T12:27:41;27.60;99.90
13642;DHT22;6894;52.196;9.904;2023-08-06T12:30:09;27.10;99.90
13642;DHT22;6894;52.196;9.904;2023-08-06T12:32:36;27.10;99.90
13642;DHT22;6894;52.196;9.904;2023-08-06T12:35:04;27.40;99.90
13642;DHT22;6894;52.196;9.904;2023-08-06T12:37:32;27.00;99.90
13642;DHT22;6894;52.196;9.904;2023-08-06T12:39:59;27.30;99.90
13642;DHT22;6894;52.196;9.904;2023-08-06T12:42:26;27.80;99.90
13642;DHT22;6894;52.196;9.904;2023-08-06T12:44:54;28.30;99.90
13642;DHT22;6894;52.196;9.904;2023-08-06T12:47:21;28.50;99.90
13642;DHT22;6894;52.196;9.904;2023-08-06T12:49:48;28.60;99.90
13642;DHT22;6894;52.196;9.904;2023-08-06T12:52:15;28.30;99.90
13642;DHT22;6894;52.196;9.904;2023-08-06T12:54:43;27.60;99.90
13642;DHT22;6894;52.196;9.904;2023-08-06T12:57:11;27.10;99.90
13642;DHT22;6894;52.196;9.904;2023-08-06T12:59:38;26.60;99.90
13642;DHT22;6894;52.196;9.904;2023-08-06T13:02:07;26.00;99.90
13642;DHT22;6894;52.196;9.904;2023-08-06T13:04:33;25.90;99.90
13642;DHT22;6894;52.196;9.904;2023-08-06T13:07:00;26.40;99.90
13642;DHT22;6894;52.196;9.904;2023-08-06T13:09:27;26.60;99.90
13642;DHT22;6894;52.196;9.904;2023-08-06T13:11:55;26.60;99.90
13642;DHT22;6894;52.196;9.904;2023-08-06T13:14:21;27.00;99.90
13642;DHT22;6894;52.196;9.904;2023-08-06T13:16:48;27.40;99.90
13642;DHT22;6894;52.196;9.904;2023-08-06T13:19:16;27.40;99.90
13642;DHT22;6894;52.196;9.904;2023-08-06T13:21:59;27.10;99.90
13642;DHT22;6894;52.196;9.904;2023-08-06T13:24:27;26.70;99.90
13642;DHT22;6894;52.196;9.904;2023-08-06T13:26:54;26.60;99.90
13642;DHT22;6894;52.196;9.904;2023-08-06T13:29:21;26.70;99.90
13642;DHT22;6894;52.196;9.904;2023-08-06T13:31:47;26.60;99.90
13642;DHT22;6894;52.196;9.904;2023-08-06T13:34:15;26.70;99.90
13642;DHT22;6894;52.196;9.904;2023-08-06T13:36:43;26.70;99.90
13642;DHT22;6894;52.196;9.904;2023-08-06T13:39:10;26.70;99.90
13642;DHT22;6894;52.196;9.904;2023-08-06T13:41:37;26.40;99.90
13642;DHT22;6894;52.196;9.904;2023-08-06T13:44:04;26.10;99.90
13642;DHT22;6894;52.196;9.904;2023-08-06T13:46:32;26.30;99.90
13642;DHT22;6894;52.196;9.904;2023-08-06T13:48:59;26.60;99.90
13642;DHT22;6894;52.196;9.904;2023-08-06T13:51:27;26.40;99.90
13642;DHT22;6894;52.196;9.904;2023-08-06T13:53:54;26.10;99.90
13642;DHT22;6894;52.196;9.904;2023-08-06T13:56:23;25.80;99.90
13642;DHT22;6894;52.196;9.904;2023-08-06T13:58:49;25.60;99.90
13642;DHT22;6894;52.196;9.904;2023-08-06T14:01:17;25.30;99.90
13642;DHT22;6894;52.196;9.904;2023-08-06T14:03:44;25.40;99.90
13642;DHT22;6894;52.196;9.904;2023-08-06T14:06:11;25.30;99.90
13642;DHT22;6894;52.196;9.904;2023-08-06T14:08:39;25.10;99.90
13642;DHT22;6894;52.196;9.904;2023-08-06T14:11:06;24.60;99.90
13642;DHT22;6894;52.196;9.904;2023-08-06T14:13:33;24.30;99.90
13642;DHT22;6894;52.196;9.904;2023-08-06T14:16:00;24.40;99.90
13642;DHT22;6894;52.196;9.904;2023-08-06T14:18:26;24.40;99.90
13642;DHT22;6894;52.196;9.904;2023-08-06T14:20:53;24.20;99.90
13642;DHT22;6894;52.196;9.904;2023-08-06T14:23:20;24.10;99.90
13642;DHT22;6894;52.196;9.904;2023-08-06T14:25:48;24.00;99.90
13642;DHT22;6894;52.196;9.904;2023-08-06T14:28:15;24.40;99.90
13642;DHT22;6894;52.196;9.904;2023-08-06T14:30:42;24.60;99.90
13642;DHT22;6894;52.196;9.904;2023-08-06T14:33:08;24.70;99.90
13642;DHT22;6894;52.196;9.904;2023-08-06T14:35:35;24.90;99.90
13642;DHT22;6894;52.196;9.904;2023-08-06T14:38:02;25.10;99.90
13642;DHT22;6894;52.196;9.904;2023-08-06T14:40:29;25.00;99.90
13642;DHT22;6894;52.196;9.904;2023-08-06T14:43:00;25.00;99.90
13642;DHT22;6894;52.196;9.904;2023-08-06T14:45:28;24.90;99.90
13642;DHT22;6894;52.196;9.904;2023-08-06T14:47:54;24.80;99.90
13642;DHT22;6894;52.196;9.904;2023-08-06T14:50:22;24.30;99.90
13642;DHT22;6894;52.196;9.904;2023-08-06T14:52:49;24.00;99.90
13642;DHT22;6894;52.196;9.904;2023-08-06T14:55:22;24.00;99.90
13642;DHT22;6894;52.196;9.904;2023-08-06T14:57:49;24.10;99.90
13642;DHT22;6894;52.196;9.904;2023-08-06T15:00:18;23.80;99.90
13642;DHT22;6894;52.196;9.904;2023-08-06T15:02:45;23.80;99.90
13642;DHT22;6894;52.196;9.904;2023-08-06T15:05:12;23.80;99.90
13642;DHT22;6894;52.196;9.904;2023-08-06T15:07:38;24.10;99.90
13642;DHT22;6894;52.196;9.904;2023-08-06T15:10:06;24.00;99.90
13642;DHT22;6894;52.196;9.904;2023-08-06T15:12:33;23.80;99.90
13642;DHT22;6894;52.196;9.904;2023-08-06T15:15:00;23.70;99.90
13642;DHT22;6894;52.196;9.904;2023-08-06T15:17:28;23.70;99.90
13642;DHT22;6894;52.196;9.904;2023-08-06T15:19:56;23.50;99.90
13642;DHT22;6894;52.196;9.904;2023-08-06T15:22:23;23.40;99.90
13642;DHT22;6894;52.196;9.904;2023-08-06T15:24:50;23.00;99.90
13642;DHT22;6894;52.196;9.904;2023-08-06T15:27:16;23.00;99.90
13642;DHT22;6894;52.196;9.904;2023-08-06T15:29:43;23.10;99.90
13642;DHT22;6894;52.196;9.904;2023-08-06T15:32:10;22.90;99.90
13642;DHT22;6894;52.196;9.904;2023-08-06T15:34:40;22.80;99.90
13642;DHT22;6894;52.196;9.904;2023-08-06T15:37:07;22.80;99.90
13642;DHT22;6894;52.196;9.904;2023-08-06T15:39:34;22.70;99.90
13642;DHT22;6894;52.196;9.904;2023-08-06T15:42:01;22.70;99.90
13642;DHT22;6894;52.196;9.904;2023-08-06T15:44:27;22.60;99.90
13642;DHT22;6894;52.196;9.904;2023-08-06T15:46:54;22.50;99.90